Time;durP1;ratioP1;P1;durP2;ratioP2;P2;SDS_P1;SDS_P2;PMS_P1;PMS_P2;Temp;Humidity;BMP_temperature;BMP_pressure;BME280_temperature;BME280_humidity;BME280_pressure;Samples;Min_cycle;Max_cycle;Signal;HPM_P1;HPM_P2
2022/09/22 00:02:40;;;;;;;71.22;28.00;;;;;;;;;;6210587;28;20038;-62
2022/09/22 00:05:41;;;;;;;66.25;26.50;;;;;;;;;;6211868;28;20069;-62
2022/09/22 00:08:44;;;;;;;61.80;26.65;;;;;;;;;;6210119;28;20045;-62
2022/09/22 00:11:47;;;;;;;68.47;26.98;;;;;;;;;;6210575;28;20048;-61
2022/09/22 00:14:48;;;;;;;64.65;27.13;;;;;;;;;;6211661;28;20052;-62
2022/09/22 00:17:49;;;;;;;65.57;26.75;;;;;;;;;;6211206;28;20493;-62
2022/09/22 00:20:50;;;;;;;65.50;26.50;;;;;;;;;;6211803;28;20053;-61
2022/09/22 00:23:51;;;;;;;74.13;26.45;;;;;;;;;;6209460;28;20656;-62
2022/09/22 00:26:56;;;;;;;69.95;28.50;;;;;;;;;;6210237;28;20064;-62
2022/09/22 00:29:56;;;;;;;69.85;25.55;;;;;;;;;;6208580;28;20179;-62
2022/09/22 00:32:57;;;;;;;71.95;27.20;;;;;;;;;;6209044;28;21015;-62
2022/09/22 00:35:59;;;;;;;72.72;27.42;;;;;;;;;;6213177;28;20045;-61
2022/09/22 00:39:00;;;;;;;76.38;27.98;;;;;;;;;;6210003;28;20092;-63
2022/09/22 00:42:01;;;;;;;80.70;29.35;;;;;;;;;;6209095;28;20069;-60
2022/09/22 00:45:03;;;;;;;84.20;28.92;;;;;;;;;;6211381;28;20052;-62
2022/09/22 00:48:03;;;;;;;90.70;30.90;;;;;;;;;;6214759;28;20468;-62
2022/09/22 00:51:11;;;;;;;107.57;36.53;;;;;;;;;;6209335;28;20045;-61
2022/09/22 00:54:16;;;;;;;108.65;35.42;;;;;;;;;;6209228;28;20084;-61
2022/09/22 00:57:21;;;;;;;109.10;35.88;;;;;;;;;;6212099;28;20882;-62
2022/09/22 01:00:22;;;;;;;121.57;36.05;;;;;;;;;;6210983;28;20056;-61
2022/09/22 01:03:25;;;;;;;125.25;39.08;;;;;;;;;;6209781;28;20444;-62
2022/09/22 01:06:28;;;;;;;135.68;40.17;;;;;;;;;;6209125;28;20045;-62
2022/09/22 01:09:31;;;;;;;145.63;40.47;;;;;;;;;;6211828;28;20188;-62
2022/09/22 01:12:35;;;;;;;132.43;38.53;;;;;;;;;;6209268;28;20140;-62
2022/09/22 01:16:10;;;;;;;149.05;40.40;;;;;;;;;;6211048;28;20042;-62
2022/09/22 01:19:46;;;;;;;141.73;38.15;;;;;;;;;;6204255;28;20429;-62
2022/09/22 01:23:11;;;;;;;150.48;41.38;;;;;;;;;;6205680;28;20072;-62
2022/09/22 01:26:38;;;;;;;163.73;44.53;;;;;;;;;;6208605;28;20271;-62
2022/09/22 01:30:10;;;;;;;184.45;49.42;;;;;;;;;;6207192;28;20500;-62
2022/09/22 01:33:17;;;;;;;176.32;45.15;;;;;;;;;;6203971;28;20060;-61
2022/09/22 01:36:52;;;;;;;173.70;45.38;;;;;;;;;;6208725;28;20050;-62
2022/09/22 01:39:59;;;;;;;166.57;42.05;;;;;;;;;;6208148;28;20128;-61
2022/09/22 01:43:32;;;;;;;183.55;47.38;;;;;;;;;;6208041;28;20141;-61
2022/09/22 01:46:41;;;;;;;162.43;45.38;;;;;;;;;;6202772;28;20413;-62
2022/09/22 01:49:49;;;;;;;173.30;44.22;;;;;;;;;;6209370;28;20046;-61
2022/09/22 01:52:53;;;;;;;169.18;42.92;;;;;;;;;;6208884;28;20140;-62
2022/09/22 01:55:58;;;;;;;165.43;42.08;;;;;;;;;;6209384;28;20136;-62
2022/09/22 01:59:03;;;;;;;168.82;45.28;;;;;;;;;;6210243;28;20188;-61
2022/09/22 02:02:12;;;;;;;159.98;43.42;;;;;;;;;;6209762;28;20046;-62
2022/09/22 02:05:24;;;;;;;172.82;40.55;;;;;;;;;;6208326;28;20512;-61
2022/09/22 02:08:35;;;;;;;160.20;38.65;;;;;;;;;;6208714;28;20494;-61
2022/09/22 02:11:36;;;;;;;147.57;39.22;;;;;;;;;;6209917;28;20093;-59
2022/09/22 02:14:37;;;;;;;148.85;41.28;;;;;;;;;;6207690;28;20045;-62
2022/09/22 02:17:38;;;;;;;158.38;39.83;;;;;;;;;;6207451;28;20038;-61
2022/09/22 02:20:39;;;;;;;171.43;41.15;;;;;;;;;;6210699;28;20077;-61
2022/09/22 02:23:41;;;;;;;165.45;41.83;;;;;;;;;;6209430;28;20496;-61
2022/09/22 02:26:41;;;;;;;150.88;40.40;;;;;;;;;;6207302;28;20485;-61
2022/09/22 02:29:51;;;;;;;158.45;40.13;;;;;;;;;;6207766;28;20041;-61
2022/09/22 02:32:54;;;;;;;158.50;41.65;;;;;;;;;;6207306;28;20065;-61
2022/09/22 02:36:21;;;;;;;164.43;42.42;;;;;;;;;;6208681;28;20042;-61
2022/09/22 02:39:34;;;;;;;159.13;39.33;;;;;;;;;;6192348;28;20050;-61
2022/09/22 02:43:02;;;;;;;144.40;37.53;;;;;;;;;;6211105;28;20255;-60
2022/09/22 02:46:18;;;;;;;132.63;35.70;;;;;;;;;;6211274;28;20050;-61
2022/09/22 02:49:21;;;;;;;129.95;35.10;;;;;;;;;;6212653;28;20133;-61
2022/09/22 02:52:23;;;;;;;123.60;33.92;;;;;;;;;;6213485;28;20085;-61
2022/09/22 02:55:24;;;;;;;114.90;31.80;;;;;;;;;;6200081;28;20145;-61
2022/09/22 02:58:24;;;;;;;107.80;29.73;;;;;;;;;;6219133;28;20417;-61
2022/09/22 03:01:25;;;;;;;108.47;30.33;;;;;;;;;;6219492;28;20034;-61
2022/09/22 03:04:26;;;;;;;122.18;32.10;;;;;;;;;;6217474;28;20045;-61
2022/09/22 03:07:26;;;;;;;104.93;29.70;;;;;;;;;;6213714;28;20058;-61
2022/09/22 03:10:27;;;;;;;106.10;29.95;;;;;;;;;;6212930;28;20060;-61
2022/09/22 03:13:28;;;;;;;119.97;32.55;;;;;;;;;;6210568;28;20137;-61
2022/09/22 03:16:28;;;;;;;108.28;30.50;;;;;;;;;;6212962;28;20572;-61
2022/09/22 03:19:29;;;;;;;111.55;28.73;;;;;;;;;;6213034;28;20050;-61
2022/09/22 03:22:30;;;;;;;103.55;29.70;;;;;;;;;;6211944;28;20394;-61
2022/09/22 03:25:30;;;;;;;109.53;29.00;;;;;;;;;;6214642;28;20057;-61
2022/09/22 03:28:31;;;;;;;108.38;30.65;;;;;;;;;;6212121;28;20185;-61
2022/09/22 03:31:31;;;;;;;108.13;29.42;;;;;;;;;;6217024;28;20056;-61
2022/09/22 03:34:32;;;;;;;93.45;27.17;;;;;;;;;;6220316;28;20046;-61
2022/09/22 03:37:33;;;;;;;105.57;28.55;;;;;;;;;;6212912;28;20390;-62
2022/09/22 03:40:34;;;;;;;103.38;30.23;;;;;;;;;;6212711;28;20409;-61
2022/09/22 03:43:35;;;;;;;99.07;28.85;;;;;;;;;;6210992;28;20064;-61
2022/09/22 03:46:35;;;;;;;101.00;27.42;;;;;;;;;;6213072;28;20053;-61
2022/09/22 03:49:36;;;;;;;95.40;27.63;;;;;;;;;;6213195;28;20050;-61
2022/09/22 03:52:36;;;;;;;97.75;28.38;;;;;;;;;;6212510;28;20038;-61
2022/09/22 03:55:37;;;;;;;98.97;26.15;;;;;;;;;;6211204;28;20034;-61
2022/09/22 03:58:37;;;;;;;101.07;27.00;;;;;;;;;;6213508;28;20049;-61
2022/09/22 04:01:38;;;;;;;100.05;27.65;;;;;;;;;;6210770;28;20042;-61
2022/09/22 04:04:39;;;;;;;105.88;27.70;;;;;;;;;;6212034;28;20057;-61
2022/09/22 04:07:39;;;;;;;94.65;26.35;;;;;;;;;;6212407;28;20091;-61
2022/09/22 04:10:40;;;;;;;99.20;26.33;;;;;;;;;;6209997;28;20053;-61
2022/09/22 04:13:40;;;;;;;92.05;28.38;;;;;;;;;;6214586;28;20057;-61
2022/09/22 04:16:41;;;;;;;104.30;27.15;;;;;;;;;;6211697;28;20044;-61
2022/09/22 04:19:42;;;;;;;91.82;22.77;;;;;;;;;;6209723;28;20057;-61
2022/09/22 04:22:43;;;;;;;93.55;27.20;;;;;;;;;;6209636;28;20472;-61
2022/09/22 04:25:43;;;;;;;92.40;27.27;;;;;;;;;;6212761;28;20425;-60
2022/09/22 04:28:45;;;;;;;98.15;27.88;;;;;;;;;;6216171;28;20034;-60
2022/09/22 04:31:45;;;;;;;101.77;28.73;;;;;;;;;;6216348;28;20052;-61
2022/09/22 04:34:47;;;;;;;100.72;29.15;;;;;;;;;;6215842;28;20050;-61
2022/09/22 04:37:48;;;;;;;101.40;27.85;;;;;;;;;;6211541;28;20133;-60
2022/09/22 04:40:51;;;;;;;111.22;30.85;;;;;;;;;;6210970;28;20057;-61
2022/09/22 04:43:52;;;;;;;106.03;29.48;;;;;;;;;;6209988;28;20157;-60
2022/09/22 04:46:54;;;;;;;101.30;26.80;;;;;;;;;;6216619;28;20382;-61
2022/09/22 04:49:55;;;;;;;102.55;25.52;;;;;;;;;;6212589;28;20153;-60
2022/09/22 04:52:56;;;;;;;97.75;25.88;;;;;;;;;;6210099;28;20042;-61
2022/09/22 04:55:56;;;;;;;93.35;24.15;;;;;;;;;;6212335;28;20049;-61
2022/09/22 04:58:57;;;;;;;80.30;24.05;;;;;;;;;;6210991;28;20045;-61
2022/09/22 05:01:58;;;;;;;79.53;23.33;;;;;;;;;;6212605;28;20041;-59
2022/09/22 05:04:58;;;;;;;80.43;23.02;;;;;;;;;;6211741;28;20046;-61
2022/09/22 05:07:59;;;;;;;70.13;21.60;;;;;;;;;;6211581;28;20038;-61
2022/09/22 05:11:00;;;;;;;73.30;21.27;;;;;;;;;;6207881;28;20053;-61
2022/09/22 05:14:01;;;;;;;75.35;21.25;;;;;;;;;;6217824;28;20034;-61
2022/09/22 05:17:01;;;;;;;75.43;23.00;;;;;;;;;;6213057;28;20082;-61
2022/09/22 05:20:05;;;;;;;81.07;23.00;;;;;;;;;;6210019;28;20192;-61
2022/09/22 05:23:06;;;;;;;77.10;22.00;;;;;;;;;;6215510;28;20413;-61
2022/09/22 05:26:07;;;;;;;82.35;24.20;;;;;;;;;;6213509;28;20053;-61
2022/09/22 05:29:07;;;;;;;82.47;23.30;;;;;;;;;;6215479;28;20558;-62
2022/09/22 05:32:08;;;;;;;87.53;22.15;;;;;;;;;;6215437;28;20077;-61
2022/09/22 05:35:10;;;;;;;83.68;24.20;;;;;;;;;;6215401;28;20052;-61
2022/09/22 05:38:10;;;;;;;87.93;23.75;;;;;;;;;;6215771;28;20052;-61
2022/09/22 05:41:11;;;;;;;91.15;25.77;;;;;;;;;;6214285;28;20038;-61
2022/09/22 05:44:12;;;;;;;77.80;22.60;;;;;;;;;;6215253;28;20045;-61
2022/09/22 05:47:12;;;;;;;72.53;20.50;;;;;;;;;;6214093;28;20048;-61
2022/09/22 05:50:15;;;;;;;76.57;22.02;;;;;;;;;;6218449;28;20041;-61
2022/09/22 05:53:16;;;;;;;79.05;22.80;;;;;;;;;;6213323;28;20046;-61
2022/09/22 05:56:17;;;;;;;58.97;18.25;;;;;;;;;;6208682;28;20080;-61
2022/09/22 05:59:17;;;;;;;61.22;17.80;;;;;;;;;;6206917;28;20627;-61
2022/09/22 06:02:18;;;;;;;60.30;18.15;;;;;;;;;;6207283;28;20670;-61
2022/09/22 06:05:19;;;;;;;58.47;16.40;;;;;;;;;;6207170;28;20038;-61
2022/09/22 06:08:19;;;;;;;51.17;16.85;;;;;;;;;;6206308;28;20054;-61
2022/09/22 06:11:20;;;;;;;56.35;17.67;;;;;;;;;;6206861;28;20050;-61
2022/09/22 06:14:21;;;;;;;75.10;22.67;;;;;;;;;;6209026;28;20512;-60
2022/09/22 06:17:22;;;;;;;87.20;25.90;;;;;;;;;;6212867;28;20026;-61
2022/09/22 06:20:22;;;;;;;81.63;22.83;;;;;;;;;;6209905;28;20107;-60
2022/09/22 06:23:24;;;;;;;74.75;20.77;;;;;;;;;;6211693;28;20042;-61
2022/09/22 06:26:26;;;;;;;91.95;24.88;;;;;;;;;;6213001;28;20177;-60
2022/09/22 06:29:27;;;;;;;86.43;26.67;;;;;;;;;;6211439;28;20042;-59
2022/09/22 06:32:27;;;;;;;73.22;21.88;;;;;;;;;;6209438;28;20034;-59
2022/09/22 06:35:36;;;;;;;71.28;20.33;;;;;;;;;;6217103;28;20112;-62
2022/09/22 06:38:37;;;;;;;77.38;20.60;;;;;;;;;;6213077;28;20054;-61
2022/09/22 06:41:37;;;;;;;51.40;15.73;;;;;;;;;;6212335;28;20516;-61
2022/09/22 06:44:38;;;;;;;45.58;14.38;;;;;;;;;;6170362;28;1249813;-61
2022/09/22 06:47:39;;;;;;;40.90;13.02;;;;;;;;;;6215399;28;20072;-61
2022/09/22 06:50:39;;;;;;;42.40;13.80;;;;;;;;;;6213397;28;20184;-62
2022/09/22 06:53:40;;;;;;;38.45;13.38;;;;;;;;;;6214267;28;20054;-62
2022/09/22 06:56:44;;;;;;;44.97;17.30;;;;;;;;;;6217325;28;20049;-62
2022/09/22 06:59:47;;;;;;;36.58;12.48;;;;;;;;;;6219371;28;20054;-60
2022/09/22 07:02:47;;;;;;;40.90;13.70;;;;;;;;;;6219584;28;20046;-62
2022/09/22 07:05:57;;;;;;;42.80;14.88;;;;;;;;;;6219741;28;20085;-62
2022/09/22 07:08:58;;;;;;;40.58;12.63;;;;;;;;;;6216649;28;20041;-61
2022/09/22 07:11:59;;;;;;;36.72;12.55;;;;;;;;;;6211946;28;20046;-61
2022/09/22 07:14:59;;;;;;;34.28;11.05;;;;;;;;;;6215490;28;20164;-61
2022/09/22 07:18:00;;;;;;;30.42;10.57;;;;;;;;;;6214215;28;20052;-61
2022/09/22 07:21:07;;;;;;;33.15;10.70;;;;;;;;;;6211006;28;20116;-61
2022/09/22 07:24:07;;;;;;;23.17;8.77;;;;;;;;;;6210183;28;20458;-61
2022/09/22 07:27:09;;;;;;;24.40;8.60;;;;;;;;;;6212281;28;20038;-61
2022/09/22 07:30:12;;;;;;;19.42;7.53;;;;;;;;;;6204011;28;20053;-63
2022/09/22 07:33:13;;;;;;;20.92;7.00;;;;;;;;;;6209004;28;20125;-61
2022/09/22 07:36:19;;;;;;;32.28;8.40;;;;;;;;;;6211945;28;20513;-61
2022/09/22 07:39:19;;;;;;;22.88;8.23;;;;;;;;;;6210002;28;20148;-62
2022/09/22 07:42:20;;;;;;;22.45;7.95;;;;;;;;;;6209624;28;20062;-61
2022/09/22 07:45:22;;;;;;;22.27;8.13;;;;;;;;;;6213303;28;20511;-61
2022/09/22 07:48:36;;;;;;;25.42;9.20;;;;;;;;;;6213087;28;20548;-61
2022/09/22 07:51:37;;;;;;;31.67;10.45;;;;;;;;;;6213027;28;20515;-61
2022/09/22 07:54:38;;;;;;;27.02;8.23;;;;;;;;;;6211673;28;20046;-61
2022/09/22 07:57:39;;;;;;;21.17;7.75;;;;;;;;;;6212038;28;20148;-61
2022/09/22 08:00:39;;;;;;;27.08;9.02;;;;;;;;;;6212115;28;20053;-61
2022/09/22 08:03:40;;;;;;;25.70;8.95;;;;;;;;;;6206628;28;20710;-62
2022/09/22 08:06:42;;;;;;;25.65;8.45;;;;;;;;;;6211745;28;20049;-61
2022/09/22 08:09:43;;;;;;;27.10;9.30;;;;;;;;;;6212092;28;20057;-62
2022/09/22 08:12:43;;;;;;;27.13;8.88;;;;;;;;;;6213519;28;20413;-61
2022/09/22 08:15:44;;;;;;;25.52;8.50;;;;;;;;;;6217410;28;20119;-62
2022/09/22 08:18:49;;;;;;;23.25;8.70;;;;;;;;;;6211837;28;20037;-62
2022/09/22 08:21:52;;;;;;;30.83;9.45;;;;;;;;;;6212421;28;20131;-62
2022/09/22 08:24:53;;;;;;;26.35;9.93;;;;;;;;;;6208692;28;20077;-62
2022/09/22 08:27:53;;;;;;;27.55;9.52;;;;;;;;;;6211744;28;20052;-60
2022/09/22 08:30:54;;;;;;;25.98;9.20;;;;;;;;;;6211831;28;20046;-61
2022/09/22 08:33:55;;;;;;;31.30;9.40;;;;;;;;;;6211672;28;20050;-61
2022/09/22 08:36:55;;;;;;;24.05;7.35;;;;;;;;;;6211635;28;20169;-61
2022/09/22 08:39:57;;;;;;;17.13;6.00;;;;;;;;;;6211486;28;20053;-61
2022/09/22 08:42:58;;;;;;;16.23;5.50;;;;;;;;;;6211770;28;20441;-61
2022/09/22 08:46:02;;;;;;;12.37;5.43;;;;;;;;;;6211053;28;20140;-62
2022/09/22 08:52:46;;;;;;;16.23;5.68;;;;;;;;;;6214516;28;20144;-61
2022/09/22 08:55:54;;;;;;;22.80;7.20;;;;;;;;;;6211263;28;20049;-62
2022/09/22 08:59:11;;;;;;;16.83;6.47;;;;;;;;;;6211097;28;21014;-61
2022/09/22 09:02:27;;;;;;;15.05;5.75;;;;;;;;;;6211886;28;20052;-61
2022/09/22 09:05:30;;;;;;;16.45;5.97;;;;;;;;;;6212010;28;20052;-62
2022/09/22 09:08:43;;;;;;;19.70;6.75;;;;;;;;;;6209049;28;20058;-61
2022/09/22 09:11:59;;;;;;;25.92;8.60;;;;;;;;;;6210118;28;20596;-62
2022/09/22 09:15:07;;;;;;;26.80;9.30;;;;;;;;;;6207111;28;20054;-61
2022/09/22 09:18:14;;;;;;;21.73;7.93;;;;;;;;;;6208807;28;20129;-61
2022/09/22 09:21:15;;;;;;;22.77;8.60;;;;;;;;;;6206069;28;20046;-61
2022/09/22 09:24:37;;;;;;;21.55;8.30;;;;;;;;;;6209153;28;20042;-62
2022/09/22 09:27:41;;;;;;;24.30;8.27;;;;;;;;;;6210661;28;20137;-61
2022/09/22 09:30:50;;;;;;;21.65;9.48;;;;;;;;;;6207910;28;20071;-61
2022/09/22 09:34:01;;;;;;;21.83;8.65;;;;;;;;;;6210284;28;20502;-62
2022/09/22 09:37:06;;;;;;;15.38;7.65;;;;;;;;;;6213626;28;20409;-61
2022/09/22 09:40:14;;;;;;;17.52;8.13;;;;;;;;;;6210732;28;20049;-61
2022/09/22 09:43:15;;;;;;;14.88;6.35;;;;;;;;;;6206701;28;20064;-61
2022/09/22 09:46:35;;;;;;;15.93;7.03;;;;;;;;;;6208979;28;20050;-61
2022/09/22 09:49:36;;;;;;;16.80;5.90;;;;;;;;;;6210757;28;20172;-61
2022/09/22 09:52:38;;;;;;;14.75;5.85;;;;;;;;;;6208443;28;20088;-61
2022/09/22 09:55:39;;;;;;;16.27;6.63;;;;;;;;;;6209415;28;20038;-61
2022/09/22 10:02:16;;;;;;;13.40;5.78;;;;;;;;;;6209212;28;20076;-62
2022/09/22 10:05:16;;;;;;;11.82;5.90;;;;;;;;;;6207146;28;20568;-61
2022/09/22 10:08:22;;;;;;;11.48;4.88;;;;;;;;;;6210297;28;20140;-60
2022/09/22 10:11:30;;;;;;;11.23;5.15;;;;;;;;;;6209231;28;20056;-61
2022/09/22 10:14:33;;;;;;;12.68;4.63;;;;;;;;;;6209499;28;20062;-61
2022/09/22 10:17:43;;;;;;;13.38;5.65;;;;;;;;;;6206254;28;20045;-62
2022/09/22 10:20:44;;;;;;;11.65;4.75;;;;;;;;;;6208173;28;20046;-61
2022/09/22 10:23:48;;;;;;;12.80;5.15;;;;;;;;;;6211081;28;20057;-61
2022/09/22 10:26:56;;;;;;;13.35;4.75;;;;;;;;;;6209275;28;20096;-62
2022/09/22 10:30:09;;;;;;;10.48;4.70;;;;;;;;;;6209721;28;20061;-61
2022/09/22 10:33:18;;;;;;;10.82;4.05;;;;;;;;;;6214064;28;20108;-62
2022/09/22 10:36:18;;;;;;;9.43;4.43;;;;;;;;;;6214077;28;20068;-61
2022/09/22 10:39:22;;;;;;;9.50;3.78;;;;;;;;;;6214144;28;20489;-62
2022/09/22 10:42:46;;;;;;;9.80;4.78;;;;;;;;;;6215295;28;20053;-62
2022/09/22 10:46:16;;;;;;;9.30;3.92;;;;;;;;;;6215711;28;20150;-62
2022/09/22 10:49:43;;;;;;;9.80;4.35;;;;;;;;;;6214934;28;20042;-62
2022/09/22 10:53:02;;;;;;;12.43;4.60;;;;;;;;;;6210632;28;20867;-62
2022/09/22 10:56:08;;;;;;;11.43;4.78;;;;;;;;;;6205719;28;20061;-62
2022/09/22 10:59:24;;;;;;;8.00;3.80;;;;;;;;;;6211783;28;20042;-62
2022/09/22 11:03:06;;;;;;;11.57;4.63;;;;;;;;;;6219010;28;20058;-62
2022/09/22 11:13:34;;;;;;;9.57;3.70;;;;;;;;;;6210208;28;20481;-62
2022/09/22 11:16:50;;;;;;;9.30;3.88;;;;;;;;;;6210511;28;20736;-62
2022/09/22 11:20:04;;;;;;;11.05;3.78;;;;;;;;;;6211214;28;20120;-61
2022/09/22 11:23:34;;;;;;;12.02;4.40;;;;;;;;;;6211821;28;20049;-61
2022/09/22 11:26:47;;;;;;;9.52;4.32;;;;;;;;;;6209894;28;20081;-63
2022/09/22 11:29:56;;;;;;;8.13;3.72;;;;;;;;;;6213336;28;20054;-61
2022/09/22 11:33:03;;;;;;;9.07;3.85;;;;;;;;;;6216398;28;20863;-61
2022/09/22 11:36:10;;;;;;;9.20;4.22;;;;;;;;;;6211376;28;20042;-61
2022/09/22 11:39:40;;;;;;;11.00;4.03;;;;;;;;;;6213288;28;20104;-60
2022/09/22 11:43:08;;;;;;;10.30;4.25;;;;;;;;;;6212566;28;20075;-61
2022/09/22 11:46:27;;;;;;;9.38;3.75;;;;;;;;;;6192982;28;20129;-61
2022/09/22 11:50:09;;;;;;;7.80;3.38;;;;;;;;;;6211652;28;20149;-61
2022/09/22 11:53:47;;;;;;;8.25;2.80;;;;;;;;;;6211681;28;20509;-61
2022/09/22 11:56:58;;;;;;;9.15;3.38;;;;;;;;;;6209211;28;20038;-61
2022/09/22 12:00:02;;;;;;;7.60;3.10;;;;;;;;;;6213314;28;20140;-61
2022/09/22 12:03:15;;;;;;;8.30;3.70;;;;;;;;;;6218050;28;20429;-61
2022/09/22 12:06:25;;;;;;;11.00;3.53;;;;;;;;;;6216558;28;20045;-60
2022/09/22 12:09:42;;;;;;;9.18;3.80;;;;;;;;;;6217508;28;20457;-61
2022/09/22 12:12:47;;;;;;;14.93;4.68;;;;;;;;;;6217289;28;20053;-61
2022/09/22 12:16:23;;;;;;;9.35;3.80;;;;;;;;;;6217742;28;20069;-60
2022/09/22 12:19:47;;;;;;;8.45;3.88;;;;;;;;;;6188130;28;20038;-61
2022/09/22 12:23:26;;;;;;;11.07;4.28;;;;;;;;;;6214731;28;20133;-61
2022/09/22 12:26:30;;;;;;;8.30;3.78;;;;;;;;;;6210314;28;20064;-61
2022/09/22 12:29:30;;;;;;;11.60;4.43;;;;;;;;;;6210645;28;20041;-60
2022/09/22 12:32:40;;;;;;;14.18;5.80;;;;;;;;;;6211005;28;20060;-59
2022/09/22 12:35:42;;;;;;;15.68;5.50;;;;;;;;;;6210434;28;20046;-61
2022/09/22 12:38:44;;;;;;;;;;;;;;;;;;6211680;28;20052;-61
2022/09/22 12:41:49;;;;;;;14.55;4.90;;;;;;;;;;6211272;28;20463;-61
2022/09/22 12:44:57;;;;;;;10.75;4.63;;;;;;;;;;6209933;28;20046;-61
2022/09/22 12:48:01;;;;;;;13.75;4.95;;;;;;;;;;6215466;28;20077;-61
2022/09/22 12:51:23;;;;;;;12.75;4.68;;;;;;;;;;6213003;28;20156;-61
2022/09/22 12:54:27;;;;;;;12.02;5.25;;;;;;;;;;6209248;28;20099;-61
2022/09/22 12:57:28;;;;;;;11.93;5.55;;;;;;;;;;6193970;28;20137;-61
2022/09/22 13:00:32;;;;;;;12.30;5.53;;;;;;;;;;6196446;28;20054;-61
2022/09/22 13:03:35;;;;;;;14.35;5.88;;;;;;;;;;6196129;28;20066;-61
2022/09/22 13:06:36;;;;;;;11.52;5.53;;;;;;;;;;6190977;28;20718;-61
2022/09/22 13:09:36;;;;;;;17.40;5.78;;;;;;;;;;6191559;28;20060;-61
2022/09/22 13:12:37;;;;;;;13.52;5.75;;;;;;;;;;6192788;28;20057;-61
2022/09/22 13:15:44;;;;;;;14.43;5.60;;;;;;;;;;6190134;28;20045;-60
2022/09/22 13:19:05;;;;;;;13.38;5.90;;;;;;;;;;6195583;28;20112;-62
2022/09/22 13:22:19;;;;;;;14.55;6.68;;;;;;;;;;6195568;28;20535;-62
2022/09/22 13:25:21;;;;;;;13.23;5.82;;;;;;;;;;6191286;28;20232;-59
2022/09/22 13:28:26;;;;;;;18.65;7.40;;;;;;;;;;6190270;28;20046;-61
2022/09/22 13:31:27;;;;;;;22.10;7.82;;;;;;;;;;6191916;28;20107;-61
2022/09/22 13:34:34;;;;;;;15.98;6.20;;;;;;;;;;6188171;28;20560;-60
2022/09/22 13:37:34;;;;;;;15.43;6.70;;;;;;;;;;6192242;28;20061;-61
2022/09/22 13:40:36;;;;;;;15.98;7.60;;;;;;;;;;6191409;28;20046;-62
2022/09/22 13:43:39;;;;;;;16.10;7.68;;;;;;;;;;6195370;28;20076;-62
2022/09/22 13:46:46;;;;;;;21.05;8.55;;;;;;;;;;6193205;28;20440;-61
2022/09/22 13:49:50;;;;;;;23.92;8.82;;;;;;;;;;6193212;28;21580;-61
2022/09/22 13:52:51;;;;;;;24.60;10.50;;;;;;;;;;6196966;28;20572;-61
2022/09/22 13:55:52;;;;;;;22.08;9.38;;;;;;;;;;6194787;28;20061;-61
2022/09/22 13:58:58;;;;;;;19.17;7.07;;;;;;;;;;6191857;28;20042;-61
2022/09/22 14:02:05;;;;;;;16.15;7.40;;;;;;;;;;6194457;28;20053;-61
2022/09/22 14:05:15;;;;;;;16.80;7.28;;;;;;;;;;6199700;28;20117;-61
2022/09/22 14:08:18;;;;;;;14.68;7.10;;;;;;;;;;6194329;28;20054;-61
2022/09/22 14:11:26;;;;;;;15.43;7.10;;;;;;;;;;6194155;28;20050;-60
2022/09/22 14:14:26;;;;;;;15.55;6.47;;;;;;;;;;6192588;28;20050;-61
2022/09/22 14:17:29;;;;;;;11.45;6.35;;;;;;;;;;6190442;28;20042;-61
2022/09/22 14:20:30;;;;;;;17.85;7.45;;;;;;;;;;6189723;28;20069;-61
2022/09/22 14:23:32;;;;;;;17.58;8.35;;;;;;;;;;6197912;28;20108;-61
2022/09/22 14:26:37;;;;;;;14.93;7.45;;;;;;;;;;6194514;28;20033;-60
2022/09/22 14:29:39;;;;;;;12.30;6.28;;;;;;;;;;6196366;28;20264;-61
2022/09/22 14:32:43;;;;;;;11.30;6.00;;;;;;;;;;6195132;28;20050;-61
2022/09/22 14:35:44;;;;;;;12.30;6.32;;;;;;;;;;6195483;28;20077;-61
2022/09/22 14:38:45;;;;;;;14.18;5.93;;;;;;;;;;6200011;28;20038;-61
2022/09/22 14:41:51;;;;;;;12.33;5.30;;;;;;;;;;6198230;28;20117;-60
2022/09/22 14:45:12;;;;;;;14.63;6.85;;;;;;;;;;6201187;28;20493;-61
2022/09/22 14:48:18;;;;;;;14.07;6.00;;;;;;;;;;6199844;28;20108;-61
2022/09/22 14:51:21;;;;;;;18.02;7.20;;;;;;;;;;6198756;28;20149;-61
2022/09/22 14:54:22;;;;;;;19.88;7.97;;;;;;;;;;6193793;28;20058;-61
2022/09/22 14:57:25;;;;;;;16.73;7.05;;;;;;;;;;6195237;28;20527;-61
2022/09/22 15:04:22;;;;;;;19.63;8.38;;;;;;;;;;6197827;28;20057;-61
2022/09/22 15:07:28;;;;;;;16.92;6.72;;;;;;;;;;6185555;28;20169;-61
2022/09/22 15:10:36;;;;;;;18.13;7.35;;;;;;;;;;6197788;28;20395;-62
2022/09/22 15:13:42;;;;;;;18.75;8.43;;;;;;;;;;6200413;28;20092;-62
2022/09/22 15:16:42;;;;;;;17.15;7.07;;;;;;;;;;6193721;28;20081;-61
2022/09/22 15:19:43;;;;;;;18.88;8.07;;;;;;;;;;6201620;28;20081;-60
2022/09/22 15:22:45;;;;;;;16.85;6.70;;;;;;;;;;6199332;28;20058;-61
2022/09/22 15:25:47;;;;;;;16.38;6.95;;;;;;;;;;6194469;28;20101;-61
2022/09/22 15:28:49;;;;;;;16.43;7.83;;;;;;;;;;6202229;28;20514;-61
2022/09/22 15:31:50;;;;;;;18.00;7.25;;;;;;;;;;6200469;28;20056;-61
2022/09/22 15:34:50;;;;;;;16.95;8.45;;;;;;;;;;6195343;28;20573;-61
2022/09/22 15:37:51;;;;;;;17.40;6.72;;;;;;;;;;6197019;28;20054;-61
2022/09/22 15:40:53;;;;;;;17.00;7.22;;;;;;;;;;6203808;28;20382;-62
2022/09/22 15:43:54;;;;;;;16.25;6.53;;;;;;;;;;6202252;28;20217;-61
2022/09/22 15:46:59;;;;;;;15.00;6.60;;;;;;;;;;6192159;28;21837;-62
2022/09/22 15:50:01;;;;;;;15.85;6.75;;;;;;;;;;6202729;28;20081;-62
2022/09/22 15:53:02;;;;;;;19.95;7.18;;;;;;;;;;6203215;28;20053;-61
2022/09/22 15:56:06;;;;;;;18.15;6.90;;;;;;;;;;6200118;28;20493;-60
2022/09/22 15:59:21;;;;;;;20.08;8.38;;;;;;;;;;6203520;28;20168;-61
2022/09/22 16:02:24;;;;;;;23.13;10.98;;;;;;;;;;6202595;28;20046;-61
2022/09/22 16:05:25;;;;;;;21.30;11.35;;;;;;;;;;6202578;28;20120;-60
2022/09/22 16:08:39;;;;;;;18.08;10.93;;;;;;;;;;6202339;28;20133;-61
2022/09/22 16:11:40;;;;;;;25.00;14.18;;;;;;;;;;6203726;28;20046;-61
2022/09/22 16:14:41;;;;;;;26.15;13.40;;;;;;;;;;6202503;28;20077;-61
2022/09/22 16:17:44;;;;;;;28.33;13.07;;;;;;;;;;6191018;28;20050;-61
2022/09/22 16:20:45;;;;;;;44.20;19.05;;;;;;;;;;6202137;28;21354;-61
2022/09/22 16:23:46;;;;;;;42.60;19.63;;;;;;;;;;6203877;28;20061;-60
2022/09/22 16:26:48;;;;;;;43.65;20.13;;;;;;;;;;6197371;28;20050;-61
2022/09/22 16:29:48;;;;;;;33.57;14.33;;;;;;;;;;6197501;28;20061;-61
2022/09/22 16:32:49;;;;;;;28.00;13.45;;;;;;;;;;6200137;28;20050;-61
2022/09/22 16:35:49;;;;;;;43.85;16.75;;;;;;;;;;6201189;28;20047;-61
2022/09/22 16:38:50;;;;;;;45.92;18.00;;;;;;;;;;6195725;28;20045;-61
2022/09/22 16:41:50;;;;;;;34.80;15.75;;;;;;;;;;6202133;28;20058;-60
2022/09/22 16:44:51;;;;;;;31.67;13.93;;;;;;;;;;6200146;28;20066;-62
2022/09/22 16:47:52;;;;;;;31.65;15.40;;;;;;;;;;6194903;28;20056;-61
2022/09/22 16:50:53;;;;;;;62.33;22.05;;;;;;;;;;6194590;28;20112;-61
2022/09/22 16:53:54;;;;;;;53.10;22.80;;;;;;;;;;6203180;28;20045;-61
2022/09/22 16:56:54;;;;;;;50.90;21.30;;;;;;;;;;6198490;28;20053;-61
2022/09/22 16:59:55;;;;;;;54.20;21.63;;;;;;;;;;6191708;28;20050;-61
2022/09/22 17:02:56;;;;;;;58.40;23.98;;;;;;;;;;6201151;28;20071;-62
2022/09/22 17:06:05;;;;;;;55.92;24.38;;;;;;;;;;6193576;28;20050;-61
2022/09/22 17:09:07;;;;;;;64.88;25.00;;;;;;;;;;6198437;28;20581;-62
2022/09/22 17:12:09;;;;;;;68.68;25.92;;;;;;;;;;6196900;28;20050;-61
2022/09/22 17:15:11;;;;;;;;;;;;;;;;;;6196297;28;20141;-61
2022/09/22 17:18:12;;;;;;;64.10;27.17;;;;;;;;;;6196777;28;20028;-61
2022/09/22 17:21:20;;;;;;;59.28;26.13;;;;;;;;;;6200258;28;20104;-58
2022/09/22 17:24:21;;;;;;;60.35;26.88;;;;;;;;;;6199575;28;20160;-61
2022/09/22 17:27:22;;;;;;;59.90;26.63;;;;;;;;;;6202276;28;20512;-61
2022/09/22 17:30:22;;;;;;;60.80;26.45;;;;;;;;;;6196933;28;20057;-67
2022/09/22 17:33:25;;;;;;;62.53;27.63;;;;;;;;;;6199871;28;20413;-61
2022/09/22 17:36:27;;;;;;;58.28;27.02;;;;;;;;;;6196995;28;20659;-61
2022/09/22 17:39:29;;;;;;;58.88;26.77;;;;;;;;;;6194003;28;20077;-61
2022/09/22 17:42:30;;;;;;;56.78;26.50;;;;;;;;;;6194729;28;20060;-61
2022/09/22 17:45:31;;;;;;;67.55;26.92;;;;;;;;;;6194203;28;20069;-59
2022/09/22 17:55:19;;;;;;;69.55;30.35;;;;;;;;;;6194657;28;20053;-61
2022/09/22 17:58:20;;;;;;;60.95;24.98;;;;;;;;;;6199367;28;20133;-60
2022/09/22 18:01:20;;;;;;;66.25;25.50;;;;;;;;;;6200484;28;20048;-60
2022/09/22 18:04:21;;;;;;;60.85;25.80;;;;;;;;;;6197705;28;20078;-60
2022/09/22 18:07:24;;;;;;;61.60;24.38;;;;;;;;;;6202426;28;20050;-60
2022/09/22 18:10:32;;;;;;;60.28;23.48;;;;;;;;;;6204041;28;20049;-60
2022/09/22 18:13:34;;;;;;;49.78;20.80;;;;;;;;;;6203767;28;20497;-60
2022/09/22 18:16:35;;;;;;;52.17;21.73;;;;;;;;;;6203821;28;20156;-60
2022/09/22 18:19:36;;;;;;;52.28;21.80;;;;;;;;;;6205741;28;20042;-60
2022/09/22 18:22:36;;;;;;;48.42;19.77;;;;;;;;;;6201346;28;20425;-60
2022/09/22 18:25:37;;;;;;;103.45;30.73;;;;;;;;;;6202952;28;20069;-60
2022/09/22 18:28:39;;;;;;;108.45;35.20;;;;;;;;;;6202784;28;20041;-59